Time;durP1;ratioP1;P1;durP2;ratioP2;P2;SDS_P1;SDS_P2;PMS_P1;PMS_P2;Temp;Humidity;BMP_temperature;BMP_pressure;BME280_temperature;BME280_humidity;BME280_pressure;Samples;Min_cycle;Max_cycle;Signal;HPM_P1;HPM_P2
2022/02/08 00:00:01;;;;;;;4.18;1.30;;;-0.70;99.90;;;;;;2090072;28;20217;-72
2022/02/08 00:01:02;;;;;;;4.63;1.70;;;-0.70;99.80;;;;;;2096646;28;20198;-73
2022/02/08 00:02:07;;;;;;;9.20;1.98;;;-0.60;99.30;;;;;;2088402;28;20191;-72
2022/02/08 00:03:09;;;;;;;4.30;1.20;;;-0.70;99.80;;;;;;2096241;28;20199;-72
2022/02/08 00:04:10;;;;;;;5.75;1.75;;;-0.60;99.80;;;;;;2104479;28;20182;-73
2022/02/08 00:05:13;;;;;;;4.10;1.43;;;-0.60;99.60;;;;;;2096668;28;20245;-73
2022/02/08 00:07:29;;;;;;;4.30;1.33;;;-0.50;98.90;;;;;;2090594;28;20217;-72
2022/02/08 00:08:30;;;;;;;3.17;1.33;;;-0.60;99.20;;;;;;2096699;28;20191;-72
2022/02/08 00:09:31;;;;;;;3.73;1.30;;;-0.70;99.40;;;;;;2096652;28;20233;-73
2022/02/08 00:10:32;;;;;;;7.60;1.60;;;-0.60;99.60;;;;;;2088018;28;20176;-72
2022/02/08 00:11:33;;;;;;;6.87;1.40;;;-0.60;99.50;;;;;;2096859;28;20200;-73
2022/02/08 00:12:34;;;;;;;5.13;1.15;;;-0.50;99.50;;;;;;2104568;28;20278;-73
2022/02/08 00:13:34;;;;;;;6.20;1.23;;;-0.50;99.90;;;;;;2096344;28;20180;-73
2022/02/08 00:14:35;;;;;;;5.47;1.47;;;-0.50;99.90;;;;;;2096472;28;20187;-72
2022/02/08 00:15:36;;;;;;;12.03;1.67;;;-0.40;99.90;;;;;;2088295;28;20215;-72
2022/02/08 00:16:37;;;;;;;7.43;1.13;;;-0.40;99.80;;;;;;2088379;28;20263;-72
2022/02/08 00:17:38;;;;;;;3.47;1.55;;;-0.30;99.50;;;;;;2096739;28;20231;-72
2022/02/08 00:18:39;;;;;;;5.80;1.13;;;-0.30;99.60;;;;;;2088320;28;20307;-73
2022/02/08 00:19:39;;;;;;;4.97;1.20;;;-0.30;99.50;;;;;;2088362;28;20230;-72
2022/02/08 00:20:40;;;;;;;3.00;1.17;;;-0.20;99.60;;;;;;2097331;28;20752;-73
2022/02/08 00:21:41;;;;;;;3.37;1.10;;;-0.20;99.00;;;;;;2104868;28;20276;-73
2022/02/08 00:22:41;;;;;;;2.67;1.20;;;-0.10;98.70;;;;;;2088182;28;20204;-73
2022/02/08 00:23:42;;;;;;;4.10;1.40;;;-0.10;98.20;;;;;;2080214;28;20271;-73
2022/02/08 00:24:43;;;;;;;3.27;1.23;;;-0.10;98.70;;;;;;2096482;28;20183;-72
2022/02/08 00:25:44;;;;;;;4.53;1.30;;;-0.10;99.00;;;;;;2105037;28;20182;-73
2022/02/08 00:26:44;;;;;;;5.37;1.30;;;-0.10;99.70;;;;;;2097206;28;20202;-72
2022/02/08 00:27:45;;;;;;;10.53;1.60;;;-0.10;99.60;;;;;;2096680;28;20179;-73
2022/02/08 00:28:46;;;;;;;6.27;1.40;;;-0.10;99.10;;;;;;2096524;28;20203;-73
2022/02/08 00:29:46;;;;;;;7.37;1.43;;;-0.20;99.50;;;;;;2096765;28;20179;-73
2022/02/08 00:30:47;;;;;;;7.40;1.27;;;-0.20;99.90;;;;;;2096670;28;20199;-73
2022/02/08 00:31:48;;;;;;;3.22;1.38;;;-0.20;99.90;;;;;;2096462;28;20683;-73
2022/02/08 00:32:49;;;;;;;5.00;1.50;;;-0.20;99.90;;;;;;2096296;28;20208;-73
2022/02/08 00:33:50;;;;;;;4.47;1.87;;;-0.20;99.90;;;;;;2088341;28;20185;-72
2022/02/08 00:34:53;;;;;;;4.05;1.65;;;-0.20;99.80;;;;;;2088312;28;20172;-72
2022/02/08 00:35:53;;;;;;;5.38;1.30;;;-0.10;99.10;;;;;;2088627;28;20188;-73
2022/02/08 00:36:54;;;;;;;3.60;1.03;;;-0.10;99.50;;;;;;2088611;28;20204;-73
2022/02/08 00:37:55;;;;;;;3.00;0.93;;;-0.10;99.90;;;;;;2088468;28;20235;-73
2022/02/08 00:38:56;;;;;;;2.03;1.00;;;-0.10;99.90;;;;;;2096667;28;20172;-72
2022/02/08 00:39:57;;;;;;;3.20;1.00;;;-0.10;99.90;;;;;;2096668;28;20663;-73
2022/02/08 00:41:00;;;;;;;6.63;1.40;;;0.00;99.90;;;;;;2096798;28;20176;-73
2022/02/08 00:42:07;;;;;;;2.65;1.30;;;0.00;98.80;;;;;;2096653;28;20171;-73
2022/02/08 00:43:08;;;;;;;3.80;0.95;;;0.00;98.60;;;;;;2089524;28;20164;-72
2022/02/08 00:44:17;;;;;;;4.53;1.23;;;0.10;98.00;;;;;;2096722;28;20180;-73
2022/02/08 00:45:31;;;;;;;4.03;1.15;;;0.10;97.30;;;;;;2096718;28;20174;-73
2022/02/08 00:46:39;;;;;;;4.60;1.02;;;0.20;97.30;;;;;;2091401;28;20795;-71
2022/02/08 00:47:43;;;;;;;4.10;1.20;;;0.30;96.20;;;;;;2091037;28;20200;-72
2022/02/08 00:48:55;;;;;;;5.10;1.27;;;0.20;96.60;;;;;;2089716;28;20283;-71
2022/02/08 00:50:04;;;;;;;3.20;1.10;;;0.20;96.00;;;;;;2096682;28;20172;-72
2022/02/08 00:51:06;;;;;;;4.85;1.00;;;0.10;96.70;;;;;;2097177;28;20156;-71
2022/02/08 00:52:14;;;;;;;3.35;0.88;;;0.10;96.90;;;;;;2097018;28;20168;-71
2022/02/08 00:53:15;;;;;;;1.73;1.10;;;0.20;96.00;;;;;;2096499;28;20160;-72
2022/02/08 00:54:17;;;;;;;6.15;1.20;;;0.20;96.50;;;;;;2096624;28;20634;-72
2022/02/08 00:55:18;;;;;;;4.70;2.00;;;0.20;96.80;;;;;;2097175;28;20250;-72
2022/02/08 00:56:19;;;;;;;3.20;1.13;;;0.20;97.60;;;;;;2097096;28;20233;-72
2022/02/08 00:57:20;;;;;;;3.80;0.90;;;0.20;96.70;;;;;;2096449;28;20733;-72
2022/02/08 00:58:20;;;;;;;5.23;1.23;;;0.30;96.80;;;;;;2096498;28;20184;-72
2022/02/08 00:59:21;;;;;;;2.77;1.43;;;0.20;96.50;;;;;;2096408;28;20176;-72
2022/02/08 01:00:22;;;;;;;5.23;1.10;;;0.20;96.60;;;;;;2088242;28;20180;-72
2022/02/08 01:01:23;;;;;;;5.85;1.30;;;0.20;97.10;;;;;;2096476;28;20184;-72
2022/02/08 01:02:23;;;;;;;5.83;1.60;;;0.30;97.60;;;;;;2097132;28;20858;-72
2022/02/08 01:03:24;;;;;;;4.60;1.70;;;0.30;97.70;;;;;;2096563;28;20180;-72
2022/02/08 01:04:26;;;;;;;5.88;1.35;;;0.30;97.70;;;;;;2087907;28;20176;-72
2022/02/08 01:05:27;;;;;;;5.10;1.52;;;0.30;97.60;;;;;;2096559;28;20645;-72
2022/02/08 01:06:28;;;;;;;4.80;1.30;;;0.30;98.30;;;;;;2088160;28;20188;-72
2022/02/08 01:07:29;;;;;;;4.45;1.40;;;0.30;97.60;;;;;;2088167;28;20197;-72
2022/02/08 01:08:32;;;;;;;8.23;1.57;;;0.30;97.10;;;;;;2087888;28;20672;-72
2022/02/08 01:09:47;;;;;;;4.53;1.27;;;0.30;97.40;;;;;;2080578;28;20206;-72
2022/02/08 01:10:49;;;;;;;2.63;1.27;;;0.40;96.80;;;;;;2082025;28;20184;-72
2022/02/08 01:11:53;;;;;;;6.65;1.50;;;0.40;96.40;;;;;;2080006;28;20224;-72
2022/02/08 01:12:54;;;;;;;4.30;1.30;;;0.40;96.20;;;;;;2080688;28;20205;-72
2022/02/08 01:13:55;;;;;;;5.67;1.20;;;0.30;96.90;;;;;;2096505;28;20667;-72
2022/02/08 01:14:58;;;;;;;3.83;1.30;;;0.40;97.20;;;;;;2096793;28;20203;-72
2022/02/08 01:15:58;;;;;;;5.35;1.25;;;0.40;97.50;;;;;;2097055;28;20624;-72
2022/02/08 01:16:59;;;;;;;5.20;1.03;;;0.40;97.90;;;;;;2096977;28;20190;-71
2022/02/08 01:18:00;;;;;;;6.60;1.30;;;0.40;97.80;;;;;;2096535;28;20176;-72
2022/02/08 01:19:03;;;;;;;2.95;1.23;;;0.40;98.20;;;;;;2088110;28;20561;-72
2022/02/08 01:20:13;;;;;;;5.80;1.40;;;0.40;99.00;;;;;;2088434;28;20650;-72
2022/02/08 01:21:13;;;;;;;4.10;1.20;;;0.30;99.70;;;;;;2089409;28;20672;-72
2022/02/08 01:22:14;;;;;;;4.53;1.40;;;0.30;99.10;;;;;;2080754;28;20189;-72
2022/02/08 01:23:15;;;;;;;5.03;1.40;;;0.20;98.90;;;;;;2079836;28;20181;-72
2022/02/08 01:24:16;;;;;;;4.77;1.30;;;0.20;99.00;;;;;;2088655;28;20692;-72
2022/02/08 01:25:27;;;;;;;4.30;1.60;;;0.10;99.30;;;;;;2097865;28;20172;-72
2022/02/08 01:26:29;;;;;;;4.18;1.85;;;0.10;99.40;;;;;;2098163;28;20198;-72
2022/02/08 01:27:32;;;;;;;3.72;1.40;;;0.20;99.20;;;;;;2091196;28;20180;-71
2022/02/08 01:28:43;;;;;;;6.20;1.60;;;0.10;99.70;;;;;;2081805;28;20181;-72
2022/02/08 01:31:59;;;;;;;5.70;2.17;;;0.20;99.90;;;;;;2098481;28;20616;-72
2022/02/08 01:35:24;;;;;;;3.47;1.30;;;0.20;99.90;;;;;;2098392;28;20354;-72
2022/02/08 01:36:38;;;;;;;4.30;1.80;;;0.20;99.90;;;;;;2097871;28;20168;-72
2022/02/08 01:37:49;;;;;;;4.63;1.55;;;0.20;99.90;;;;;;2085681;28;20174;-71
2022/02/08 01:39:00;;;;;;;4.00;2.30;;;0.20;99.90;;;;;;2085862;28;20206;-72
2022/02/08 01:40:16;;;;;;;5.47;1.70;;;0.20;99.90;;;;;;2090803;28;20177;-71
2022/02/08 01:42:36;;;;;;;4.53;1.52;;;0.20;99.90;;;;;;2098021;28;20567;-71
2022/02/08 01:44:56;;;;;;;3.67;1.37;;;0.20;99.90;;;;;;2097648;28;20172;-72
2022/02/08 01:47:30;;;;;;;3.28;1.63;;;0.20;99.90;;;;;;2098156;28;20267;-72
2022/02/08 01:48:57;;;;;;;4.95;2.05;;;0.20;99.90;;;;;;2097613;28;20261;-72
2022/02/08 01:50:11;;;;;;;5.45;1.80;;;0.20;99.90;;;;;;2094358;28;20358;-72
2022/02/08 01:51:12;;;;;;;7.03;1.52;;;0.20;99.90;;;;;;2098152;28;20230;-71
2022/02/08 01:52:12;;;;;;;1.40;1.00;;;0.20;99.60;;;;;;2097576;28;20180;-71
2022/02/08 01:53:13;;;;;;;4.87;1.60;;;0.20;99.70;;;;;;2089452;28;20176;-71
2022/02/08 01:54:14;;;;;;;4.90;1.30;;;0.10;99.70;;;;;;2097737;28;20226;-71
2022/02/08 01:55:16;;;;;;;7.73;1.80;;;0.10;99.90;;;;;;2097690;28;20199;-71
2022/02/08 01:56:17;;;;;;;6.20;1.92;;;0.10;99.90;;;;;;2097712;28;20176;-71
2022/02/08 01:57:18;;;;;;;6.10;1.50;;;0.20;99.90;;;;;;2097673;28;20331;-71
2022/02/08 01:58:20;;;;;;;3.13;1.20;;;0.20;99.90;;;;;;2097509;28;20420;-71
2022/02/08 01:59:23;;;;;;;5.35;1.13;;;0.10;99.90;;;;;;2098230;28;20171;-72
2022/02/08 02:00:24;;;;;;;5.35;1.33;;;0.20;99.90;;;;;;2097557;28;20222;-73
2022/02/08 02:01:25;;;;;;;5.40;1.50;;;0.10;99.90;;;;;;2089390;28;20259;-73
2022/02/08 02:02:25;;;;;;;7.03;1.97;;;0.20;99.90;;;;;;2089374;28;20222;-73
2022/02/08 02:03:26;;;;;;;4.83;1.20;;;0.10;99.90;;;;;;2089373;28;20639;-73
2022/02/08 02:04:27;;;;;;;2.13;1.20;;;0.10;99.90;;;;;;2089147;28;20564;-73
2022/02/08 02:05:28;;;;;;;4.10;1.20;;;0.10;99.90;;;;;;2097609;28;20180;-73
2022/02/08 02:06:28;;;;;;;6.63;1.77;;;0.10;99.90;;;;;;2089225;28;20275;-73
2022/02/08 02:07:29;;;;;;;6.03;1.30;;;0.10;99.90;;;;;;2088733;28;20200;-73
2022/02/08 02:08:30;;;;;;;2.80;1.27;;;0.10;99.90;;;;;;2097293;28;20215;-74
2022/02/08 02:09:31;;;;;;;6.07;1.23;;;0.20;99.90;;;;;;2089006;28;20665;-73
2022/02/08 02:10:33;;;;;;;3.30;1.30;;;0.20;99.90;;;;;;2089310;28;20179;-73
2022/02/08 02:11:34;;;;;;;3.70;1.15;;;0.20;99.90;;;;;;2089380;28;20559;-73
2022/02/08 02:12:36;;;;;;;3.25;1.13;;;0.10;99.90;;;;;;2081122;28;20208;-73
2022/02/08 02:13:49;;;;;;;5.47;1.15;;;0.10;99.90;;;;;;2081334;28;20173;-73
2022/02/08 02:14:49;;;;;;;5.35;1.23;;;0.10;99.90;;;;;;2090964;28;20172;-73
2022/02/08 02:15:50;;;;;;;2.43;1.00;;;0.10;99.90;;;;;;2090784;28;20200;-73
2022/02/08 02:16:58;;;;;;;11.17;2.20;;;0.10;99.90;;;;;;2097433;28;20694;-73
2022/02/08 02:17:59;;;;;;;3.65;1.10;;;0.10;99.90;;;;;;2097519;28;20180;-73
2022/02/08 02:18:59;;;;;;;5.27;1.30;;;0.10;99.90;;;;;;2097383;28;20187;-73
2022/02/08 02:20:00;;;;;;;7.97;1.80;;;0.10;99.90;;;;;;2089044;28;20173;-73
2022/02/08 02:21:03;;;;;;;4.33;1.13;;;0.10;99.90;;;;;;2089227;28;20680;-73
2022/02/08 02:22:06;;;;;;;6.57;1.33;;;0.00;99.90;;;;;;2089315;28;20223;-73
2022/02/08 02:23:07;;;;;;;3.60;1.67;;;0.00;99.90;;;;;;2089850;28;20195;-73
2022/02/08 02:24:07;;;;;;;3.23;1.70;;;0.00;99.90;;;;;;2097559;28;20664;-73
2022/02/08 02:25:20;;;;;;;6.97;1.90;;;0.00;99.90;;;;;;2089978;28;20238;-74
2022/02/08 02:26:20;;;;;;;7.18;1.58;;;-0.10;99.90;;;;;;2097818;28;20178;-73
2022/02/08 02:27:21;;;;;;;5.07;1.40;;;-0.10;99.90;;;;;;2097711;28;20210;-74
2022/02/08 02:28:22;;;;;;;3.20;1.10;;;-0.10;99.90;;;;;;2089210;28;20188;-74
2022/02/08 02:29:23;;;;;;;4.10;1.50;;;-0.10;99.90;;;;;;2089263;28;20222;-74
2022/02/08 02:30:26;;;;;;;3.10;1.13;;;-0.20;99.90;;;;;;2089238;28;20263;-73
2022/02/08 02:31:26;;;;;;;4.65;1.40;;;-0.20;99.90;;;;;;2089627;28;20446;-72
2022/02/08 02:32:27;;;;;;;5.10;1.20;;;-0.20;99.90;;;;;;2080994;28;20747;-72
2022/02/08 02:33:28;;;;;;;5.77;1.60;;;-0.10;99.90;;;;;;2081181;28;20261;-72
2022/02/08 02:34:29;;;;;;;8.33;1.10;;;-0.10;99.90;;;;;;2089182;28;20176;-72
2022/02/08 02:35:30;;;;;;;5.78;1.40;;;0.00;99.90;;;;;;2088931;28;20253;-73
2022/02/08 02:36:31;;;;;;;3.13;1.10;;;-0.10;99.90;;;;;;2096903;28;20218;-72
2022/02/08 02:37:31;;;;;;;6.23;1.13;;;0.00;99.90;;;;;;2089243;28;20191;-72
2022/02/08 02:38:32;;;;;;;3.23;1.20;;;-0.10;99.90;;;;;;2090053;28;20172;-72
2022/02/08 02:39:33;;;;;;;3.27;1.00;;;0.00;99.90;;;;;;2095821;28;20610;-73
2022/02/08 02:40:33;;;;;;;2.60;1.10;;;0.00;99.90;;;;;;2089027;28;20632;-72
2022/02/08 02:41:44;;;;;;;3.77;0.93;;;0.00;99.90;;;;;;2089235;28;20187;-72
2022/02/08 02:42:45;;;;;;;3.05;1.13;;;0.00;99.90;;;;;;2097448;28;20215;-73
2022/02/08 02:43:46;;;;;;;4.03;1.00;;;-0.10;99.90;;;;;;2098103;28;20632;-72
2022/02/08 02:44:46;;;;;;;4.93;1.27;;;-0.10;99.90;;;;;;2088917;28;20191;-72
2022/02/08 02:45:47;;;;;;;4.50;1.00;;;-0.10;99.90;;;;;;2089223;28;20181;-72
2022/02/08 02:46:48;;;;;;;4.28;1.58;;;0.00;99.90;;;;;;2097986;28;20180;-72
2022/02/08 02:47:52;;;;;;;3.22;1.08;;;-0.10;99.90;;;;;;2089025;28;20219;-72
2022/02/08 02:48:53;;;;;;;4.55;1.15;;;-0.10;99.90;;;;;;2081380;28;20216;-72
2022/02/08 02:49:53;;;;;;;4.27;1.10;;;-0.10;99.90;;;;;;2089234;28;20180;-72
2022/02/08 02:50:55;;;;;;;5.43;1.40;;;-0.10;99.90;;;;;;2089001;28;20257;-72
2022/02/08 02:51:56;;;;;;;1.70;0.77;;;-0.10;99.90;;;;;;2097176;28;20176;-72
2022/02/08 02:52:57;;;;;;;2.88;1.38;;;-0.10;99.90;;;;;;2097444;28;20857;-72
2022/02/08 02:53:59;;;;;;;2.87;1.13;;;-0.20;99.90;;;;;;2089057;28;20187;-73
2022/02/08 02:55:00;;;;;;;1.98;0.90;;;-0.10;99.90;;;;;;2089094;28;20165;-72
2022/02/08 02:56:01;;;;;;;5.20;1.03;;;-0.10;99.90;;;;;;2088999;28;20271;-73
2022/02/08 02:57:02;;;;;;;4.40;1.63;;;-0.10;99.90;;;;;;2097143;28;20200;-72
2022/02/08 02:58:05;;;;;;;3.35;0.98;;;-0.10;99.90;;;;;;2097228;28;20168;-72
2022/02/08 02:59:06;;;;;;;8.30;1.10;;;-0.10;99.90;;;;;;2080752;28;20683;-72
2022/02/08 03:00:12;;;;;;;5.82;1.10;;;-0.20;99.90;;;;;;2081025;28;20197;-72
2022/02/08 03:05:17;;;;;;;3.63;1.10;;;-0.40;99.90;;;;;;2097353;28;20171;-73
2022/02/08 03:17:41;;;;;;;2.58;1.40;;;-0.60;99.90;;;;;;2064114;28;20177;-72
2022/02/08 03:18:44;;;;;;;2.50;0.80;;;-0.60;99.90;;;;;;2097293;28;20707;-73
2022/02/08 03:19:45;;;;;;;2.75;0.98;;;-0.50;99.90;;;;;;2096846;28;20187;-72
2022/02/08 03:20:46;;;;;;;7.70;1.43;;;-0.60;99.90;;;;;;2089065;28;20181;-72
2022/02/08 03:21:47;;;;;;;2.45;1.17;;;-0.50;99.90;;;;;;2096980;28;20652;-73
2022/02/08 03:22:48;;;;;;;4.80;1.40;;;-0.50;99.90;;;;;;2088622;28;20216;-72
2022/02/08 03:23:48;;;;;;;3.57;1.07;;;-0.50;99.90;;;;;;2080192;28;20191;-72
2022/02/08 03:24:49;;;;;;;3.70;0.97;;;-0.50;99.90;;;;;;2080303;28;20185;-72
2022/02/08 03:25:50;;;;;;;6.07;1.20;;;-0.50;99.90;;;;;;2096847;28;20179;-72
2022/02/08 03:26:50;;;;;;;3.17;1.30;;;-0.50;99.90;;;;;;2096941;28;20192;-72
2022/02/08 03:27:51;;;;;;;3.13;1.07;;;-0.50;99.90;;;;;;2088661;28;20195;-72
2022/02/08 03:28:52;;;;;;;5.03;1.20;;;-0.50;99.90;;;;;;2088517;28;20204;-73
2022/02/08 03:29:52;;;;;;;8.20;1.10;;;-0.60;99.90;;;;;;2096836;28;20667;-72
2022/02/08 03:30:54;;;;;;;3.63;1.00;;;-0.50;99.90;;;;;;2096814;28;20623;-73
2022/02/08 03:31:54;;;;;;;5.22;1.85;;;-0.60;99.90;;;;;;2080412;28;20185;-72
2022/02/08 03:32:55;;;;;;;5.83;1.30;;;-0.60;99.90;;;;;;2088786;28;20760;-72
2022/02/08 03:33:56;;;;;;;4.53;1.13;;;-0.60;99.90;;;;;;2105216;28;20213;-72
2022/02/08 03:34:56;;;;;;;3.23;1.10;;;-0.70;99.90;;;;;;2104935;28;20554;-72
2022/02/08 03:35:57;;;;;;;6.23;1.40;;;-0.80;99.90;;;;;;2105249;28;20262;-73
2022/02/08 03:36:58;;;;;;;1.87;1.20;;;-0.90;99.90;;;;;;2088532;28;20180;-72
2022/02/08 03:38:02;;;;;;;4.97;1.40;;;-0.90;99.90;;;;;;2080272;28;20239;-72
2022/02/08 03:39:18;;;;;;;4.53;1.20;;;-0.80;99.90;;;;;;2096713;28;20178;-72
2022/02/08 03:40:31;;;;;;;7.32;1.75;;;-0.80;99.90;;;;;;2096762;28;20254;-72
2022/02/08 03:41:40;;;;;;;3.22;1.23;;;-0.90;99.90;;;;;;2092072;28;20168;-72
2022/02/08 03:42:57;;;;;;;4.25;1.05;;;-0.90;99.90;;;;;;2091331;28;20271;-73
2022/02/08 03:43:58;;;;;;;6.93;1.83;;;-0.90;99.90;;;;;;2094407;28;20644;-72
2022/02/08 03:45:01;;;;;;;2.83;1.00;;;-0.90;99.90;;;;;;2102975;28;20224;-73
2022/02/08 03:46:06;;;;;;;4.15;1.33;;;-0.90;99.90;;;;;;2105005;28;20179;-73
2022/02/08 03:47:07;;;;;;;3.80;1.10;;;-0.90;99.90;;;;;;2097692;28;20274;-72
2022/02/08 03:48:10;;;;;;;7.20;1.77;;;-0.90;99.90;;;;;;2105090;28;20555;-72
2022/02/08 03:49:11;;;;;;;2.90;1.38;;;-0.90;99.90;;;;;;2105613;28;20814;-73
2022/02/08 03:50:11;;;;;;;2.95;1.00;;;-0.90;99.90;;;;;;2105070;28;20179;-73
2022/02/08 03:51:13;;;;;;;1.83;1.47;;;-0.90;99.90;;;;;;2105027;28;20175;-72
2022/02/08 03:52:14;;;;;;;4.43;1.20;;;-1.00;99.90;;;;;;2104954;28;20179;-72
2022/02/08 03:53:14;;;;;;;4.60;1.57;;;-1.00;99.90;;;;;;2096801;28;20230;-72
2022/02/08 03:54:17;;;;;;;3.10;1.73;;;-1.00;99.90;;;;;;2105123;28;20183;-72
2022/02/08 03:55:17;;;;;;;4.40;1.10;;;-1.00;99.90;;;;;;2105100;28;20204;-72
2022/02/08 03:56:21;;;;;;;2.23;1.17;;;-1.10;99.90;;;;;;2105048;28;20183;-73
2022/02/08 03:57:26;;;;;;;9.57;1.92;;;-1.10;99.90;;;;;;2105716;28;20239;-73
2022/02/08 03:58:26;;;;;;;2.17;1.00;;;-1.10;99.90;;;;;;2096533;28;20179;-72
2022/02/08 03:59:27;;;;;;;6.90;1.50;;;-1.10;99.90;;;;;;2080345;28;20218;-72
2022/02/08 04:00:32;;;;;;;2.60;1.17;;;-1.20;99.90;;;;;;2096653;28;20682;-72
2022/02/08 04:02:55;;;;;;;2.83;1.45;;;-1.20;99.90;;;;;;2091502;28;20202;-72
2022/02/08 04:04:26;;;;;;;4.80;1.10;;;-1.20;99.90;;;;;;2096908;28;20182;-72
2022/02/08 04:05:32;;;;;;;7.85;1.90;;;-1.30;99.90;;;;;;2095143;28;20203;-72
2022/02/08 04:06:32;;;;;;;2.03;0.95;;;-1.30;99.90;;;;;;2093146;28;20697;-72
2022/02/08 04:07:39;;;;;;;6.80;1.40;;;-1.30;99.90;;;;;;2096669;28;20237;-72
2022/02/08 04:08:40;;;;;;;3.65;1.15;;;-1.20;99.90;;;;;;2096536;28;20171;-72
2022/02/08 04:09:41;;;;;;;3.63;1.40;;;-1.20;99.90;;;;;;2096562;28;20191;-72
2022/02/08 04:10:43;;;;;;;2.80;1.23;;;-1.20;99.90;;;;;;2096635;28;20186;-72
2022/02/08 04:12:01;;;;;;;3.00;0.90;;;-1.10;99.90;;;;;;2088680;28;20229;-72
2022/02/08 04:13:12;;;;;;;3.42;1.00;;;-1.10;99.90;;;;;;2096601;28;20213;-72
2022/02/08 04:14:27;;;;;;;3.58;1.10;;;-1.00;99.90;;;;;;2088341;28;20185;-72
2022/02/08 04:16:37;;;;;;;3.78;1.95;;;-1.10;99.90;;;;;;2090856;28;20198;-72
2022/02/08 04:17:56;;;;;;;1.67;1.38;;;-1.10;99.90;;;;;;2089208;28;20184;-72
2022/02/08 04:34:24;;;;;;;1.90;1.13;;;-0.90;99.90;;;;;;2090752;28;20188;-72
2022/02/08 04:37:56;;;;;;;6.63;2.00;;;-0.80;99.90;;;;;;2097314;28;20181;-72
2022/02/08 04:41:20;;;;;;;5.80;2.77;;;-0.70;99.90;;;;;;2097215;28;20179;-72
2022/02/08 04:42:29;;;;;;;2.85;2.03;;;-0.60;99.90;;;;;;2097300;28;20219;-72
2022/02/08 04:44:49;;;;;;;4.65;1.30;;;-0.50;99.90;;;;;;2091104;28;20222;-72
2022/02/08 04:45:56;;;;;;;1.88;1.30;;;-0.40;99.90;;;;;;2090949;28;20198;-72
2022/02/08 04:47:11;;;;;;;5.32;2.67;;;-0.40;99.90;;;;;;2090023;28;20635;-72
2022/02/08 04:48:55;;;;;;;2.78;1.48;;;-0.40;99.90;;;;;;2082612;28;20185;-72
2022/02/08 04:49:35;;;;;;;8.95;2.10;;;-0.30;99.90;;;;;;2087605;28;20845;-72
2022/02/08 04:50:37;;;;;;;3.17;1.20;;;-0.30;99.90;;;;;;2096276;28;20195;-72
2022/02/08 04:52:39;;;;;;;6.57;1.90;;;-0.20;99.90;;;;;;2088342;28;20274;-72
2022/02/08 04:53:46;;;;;;;3.73;1.17;;;-0.10;99.90;;;;;;2096382;28;20188;-72
2022/02/08 04:56:10;;;;;;;2.92;1.00;;;0.00;99.90;;;;;;2096523;28;20250;-72
2022/02/08 04:57:28;;;;;;;5.72;1.17;;;0.00;99.90;;;;;;2096597;28;20169;-72
2022/02/08 04:58:44;;;;;;;4.60;1.38;;;0.00;99.90;;;;;;2097052;28;20164;-72
2022/02/08 05:01:05;;;;;;;6.90;1.67;;;0.00;99.90;;;;;;2092168;28;20283;-72
2022/02/08 05:26:51;;;;;;;2.30;1.10;;;-0.20;99.90;;;;;;2098393;28;20168;-73
2022/02/08 05:35:26;;;;;;;6.88;3.08;;;-1.10;99.90;;;;;;2094422;28;20860;-73
2022/02/08 05:41:41;;;;;;;3.85;1.30;;;-1.20;99.90;;;;;;2094504;28;20604;-73
2022/02/08 05:42:59;;;;;;;4.78;1.27;;;-1.10;99.90;;;;;;2095056;28;20210;-73
2022/02/08 05:45:09;;;;;;;11.97;2.30;;;-1.10;99.90;;;;;;2091655;28;20191;-73
2022/02/08 05:47:11;;;;;;;4.63;1.50;;;-1.10;99.90;;;;;;2090678;28;20186;-73
2022/02/08 05:48:21;;;;;;;7.70;1.47;;;-1.10;99.90;;;;;;2097658;28;20751;-73
2022/02/08 05:49:27;;;;;;;4.03;1.02;;;-1.00;99.90;;;;;;2097277;28;20207;-73
2022/02/08 05:51:58;;;;;;;7.83;1.50;;;-1.00;99.90;;;;;;2097945;28;20193;-72
2022/02/08 05:54:00;;;;;;;9.83;2.10;;;-1.00;99.90;;;;;;2098035;28;20180;-73
2022/02/08 05:55:00;;;;;;;9.60;1.80;;;-1.00;99.90;;;;;;2097990;28;20187;-73
2022/02/08 05:56:01;;;;;;;5.83;1.03;;;-0.90;99.90;;;;;;2097616;28;20172;-73
2022/02/08 05:57:02;;;;;;;7.03;1.53;;;-0.90;99.90;;;;;;2097444;28;20230;-73
2022/02/08 05:58:03;;;;;;;5.43;1.20;;;-0.90;99.90;;;;;;2098218;28;20173;-73
2022/02/08 05:59:08;;;;;;;3.33;1.15;;;-0.90;99.90;;;;;;2097324;28;20187;-73
2022/02/08 06:00:11;;;;;;;5.10;1.10;;;-0.90;99.90;;;;;;2089727;28;20207;-73
2022/02/08 06:01:12;;;;;;;3.70;1.20;;;-0.90;99.90;;;;;;2089455;28;20222;-73
2022/02/08 06:02:13;;;;;;;3.42;1.00;;;-0.80;99.90;;;;;;2081132;28;20191;-71
2022/02/08 06:03:14;;;;;;;6.47;2.20;;;-0.80;99.90;;;;;;2089448;28;20176;-73
2022/02/08 06:04:16;;;;;;;5.93;1.20;;;-0.80;99.90;;;;;;2089305;28;20192;-73
2022/02/08 06:05:19;;;;;;;3.63;1.20;;;-0.80;99.90;;;;;;2097324;28;20191;-73
2022/02/08 06:06:22;;;;;;;4.82;1.35;;;-0.80;99.90;;;;;;2097876;28;20186;-73
2022/02/08 06:07:23;;;;;;;7.35;1.50;;;-0.80;99.90;;;;;;2097267;28;20180;-73
2022/02/08 06:08:24;;;;;;;4.60;1.20;;;-0.80;99.90;;;;;;2097495;28;20252;-73
2022/02/08 06:09:25;;;;;;;3.47;1.50;;;-0.80;99.90;;;;;;2097185;28;20309;-72
2022/02/08 06:10:27;;;;;;;5.17;1.23;;;-0.80;99.90;;;;;;2096951;28;20726;-72
2022/02/08 06:11:28;;;;;;;6.47;1.27;;;-0.80;99.90;;;;;;2088691;28;20226;-72
2022/02/08 06:12:29;;;;;;;4.47;1.40;;;-0.80;99.90;;;;;;2097478;28;20199;-73
2022/02/08 06:13:30;;;;;;;3.33;1.73;;;-0.80;99.90;;;;;;2105775;28;20193;-73
2022/02/08 06:14:33;;;;;;;3.63;1.20;;;-0.80;99.90;;;;;;2105600;28;20186;-73
2022/02/08 06:15:34;;;;;;;4.53;1.40;;;-0.70;99.90;;;;;;2097566;28;20195;-73
2022/02/08 06:16:35;;;;;;;6.05;1.52;;;-0.70;99.90;;;;;;2105860;28;20186;-73
2022/02/08 06:17:36;;;;;;;4.97;1.40;;;-0.70;99.90;;;;;;2097540;28;20274;-73
2022/02/08 06:18:37;;;;;;;6.87;1.37;;;-0.60;99.90;;;;;;2089200;28;20177;-73
2022/02/08 06:19:38;;;;;;;5.27;1.77;;;-0.60;99.90;;;;;;2097470;28;20221;-73
2022/02/08 06:20:38;;;;;;;1.63;0.97;;;-0.60;99.90;;;;;;2097349;28;20226;-73
2022/02/08 06:21:39;;;;;;;5.93;1.80;;;-0.60;99.90;;;;;;2088981;28;20183;-72
2022/02/08 06:22:41;;;;;;;5.30;2.50;;;-0.60;99.90;;;;;;2097338;28;20288;-73
2022/02/08 06:23:42;;;;;;;7.28;3.28;;;-0.60;99.90;;;;;;2105809;28;20171;-72
2022/02/08 06:24:43;;;;;;;8.50;2.27;;;-0.60;99.90;;;;;;2097205;28;20222;-73
2022/02/08 06:25:43;;;;;;;5.90;2.33;;;-0.60;99.90;;;;;;2097474;28;20276;-72
2022/02/08 06:26:44;;;;;;;9.10;1.70;;;-0.50;99.90;;;;;;2097990;28;20176;-73
2022/02/08 06:27:49;;;;;;;8.03;2.40;;;-0.50;99.90;;;;;;2097386;28;20175;-72
2022/02/08 06:29:03;;;;;;;9.10;2.33;;;-0.50;99.90;;;;;;2097205;28;20195;-72
2022/02/08 06:30:05;;;;;;;4.13;1.85;;;-0.50;99.90;;;;;;2099557;28;20159;-72
2022/02/08 06:31:06;;;;;;;4.43;1.50;;;-0.50;99.90;;;;;;2097274;28;20714;-72
2022/02/08 06:32:07;;;;;;;4.37;1.20;;;-0.50;99.90;;;;;;2097370;28;20180;-73
2022/02/08 06:33:08;;;;;;;4.68;1.20;;;-0.40;99.90;;;;;;2097830;28;20187;-73
2022/02/08 06:34:09;;;;;;;6.33;1.50;;;-0.30;99.90;;;;;;2105395;28;20266;-73
2022/02/08 06:35:16;;;;;;;2.87;1.43;;;-0.40;99.90;;;;;;2096840;28;20648;-72
2022/02/08 06:36:16;;;;;;;5.43;1.20;;;-0.40;99.90;;;;;;2081767;28;20250;-73
2022/02/08 06:37:20;;;;;;;2.97;1.20;;;-0.40;99.90;;;;;;2081533;28;20193;-73
2022/02/08 06:38:21;;;;;;;5.60;1.65;;;-0.40;99.90;;;;;;2081098;28;20184;-73
2022/02/08 06:39:21;;;;;;;5.27;1.57;;;-0.30;99.90;;;;;;2089319;28;20184;-72
2022/02/08 06:40:22;;;;;;;5.53;1.23;;;-0.30;99.90;;;;;;2097379;28;20179;-73
2022/02/08 06:41:23;;;;;;;4.43;1.50;;;-0.30;99.90;;;;;;2089036;28;20270;-73
2022/02/08 06:42:24;;;;;;;2.13;1.10;;;-0.30;99.90;;;;;;2097344;28;20180;-72
2022/02/08 06:43:28;;;;;;;8.13;1.47;;;-0.20;99.90;;;;;;2097970;28;20180;-72
2022/02/08 06:44:28;;;;;;;5.55;1.52;;;-0.20;99.90;;;;;;2097093;28;20180;-73
2022/02/08 06:45:30;;;;;;;3.20;1.13;;;-0.20;99.90;;;;;;2097425;28;20248;-72
2022/02/08 06:46:30;;;;;;;6.70;1.30;;;-0.20;99.90;;;;;;2097303;28;20186;-73
2022/02/08 06:47:32;;;;;;;4.83;1.40;;;-0.20;99.90;;;;;;2079936;28;20684;-72
2022/02/08 06:48:32;;;;;;;2.58;0.88;;;-0.20;99.90;;;;;;2082962;28;20196;-72
2022/02/08 06:49:33;;;;;;;5.90;1.30;;;-0.20;99.90;;;;;;2092661;28;20581;-72
2022/02/08 06:50:34;;;;;;;2.83;1.30;;;-0.30;99.90;;;;;;2093460;28;20171;-73
2022/02/08 06:51:35;;;;;;;8.63;1.67;;;-0.20;99.90;;;;;;2097643;28;20640;-73
2022/02/08 06:52:35;;;;;;;7.70;1.57;;;-0.10;99.90;;;;;;2093927;28;20196;-72
2022/02/08 06:53:36;;;;;;;2.97;1.17;;;-0.10;99.90;;;;;;2072247;28;20268;-73
2022/02/08 06:54:37;;;;;;;2.90;1.00;;;-0.10;99.90;;;;;;2080181;28;20181;-72
2022/02/08 06:55:38;;;;;;;5.43;1.60;;;-0.20;99.90;;;;;;2088724;28;20645;-73
2022/02/08 06:56:39;;;;;;;6.13;0.98;;;-0.20;99.90;;;;;;2088842;28;20176;-72
2022/02/08 06:58:00;;;;;;;3.00;1.00;;;-0.20;99.90;;;;;;2080426;28;20280;-72
2022/02/08 06:59:09;;;;;;;4.20;1.30;;;-0.20;99.90;;;;;;2088891;28;20156;-72
2022/02/08 07:00:12;;;;;;;6.43;2.08;;;-0.20;99.90;;;;;;2089151;28;20260;-73
2022/02/08 07:01:13;;;;;;;8.20;1.55;;;-0.20;99.90;;;;;;2089923;28;20180;-72
2022/02/08 07:02:13;;;;;;;4.95;2.50;;;-0.20;99.90;;;;;;2088685;28;20195;-72
2022/02/08 07:03:17;;;;;;;3.90;1.50;;;-0.20;99.90;;;;;;2088789;28;20186;-72
2022/02/08 07:04:18;;;;;;;5.05;1.10;;;-0.10;99.90;;;;;;2088443;28;20191;-72